Leandro N. Alem, Argentina
Current Conditions -  °F | °C
As of 8:00 PM on Friday 24 Oct 2014 (Local Time) from SAAR Reporting Station
Clear Clear  
Wind Chill: 81°   Ceiling: Unl
Heat Index: 81°   Visibility: 6mi
Dew Point: 61°   Wind: 7mph
Humidity: 51%   Direction: 90°E
Pressure: 29.88"   Gusts: NA
Location:  34.5°S, 61.4°W
Report Text: SAAR 242300Z 09006KT CAVOK 27/16 Q1012
Loading
Personal Weather Stations






























Interactive Weather Map
Tropical Storm Tracking
New forecast layout! Learn more

10-Day Weather Forecast

Advertisements
Track Severe Weather on mobile